createdAt,value
2018-08-18T00:04:48.542Z,20.80
2018-08-18T00:09:52.065Z,20.70
2018-08-18T00:14:55.512Z,20.80
2018-08-18T00:19:58.949Z,20.70
2018-08-18T00:25:02.438Z,20.70
2018-08-18T00:30:12.468Z,20.60
2018-08-18T00:35:15.919Z,20.60
2018-08-18T00:40:19.360Z,20.50
2018-08-18T00:45:22.814Z,20.40
2018-08-18T00:50:37.705Z,20.40
2018-08-18T00:55:41.193Z,20.40
2018-08-18T01:00:48.881Z,20.30
2018-08-18T01:05:52.442Z,20.20
2018-08-18T01:10:55.988Z,20.30
2018-08-18T01:15:59.365Z,20.20
2018-08-18T01:21:02.848Z,20.20
2018-08-18T01:26:06.698Z,20.20
2018-08-18T01:31:19.373Z,20.20
2018-08-18T01:36:22.823Z,20.20
2018-08-18T01:41:26.361Z,20.10
2018-08-18T01:46:29.801Z,20.10
2018-08-18T01:51:33.264Z,20.00
2018-08-18T01:56:36.722Z,20.00
2018-08-18T02:01:40.197Z,20.00
2018-08-18T02:06:43.789Z,20.00
2018-08-18T02:11:50.980Z,20.00
2018-08-18T02:17:04.365Z,20.00
2018-08-18T02:22:07.841Z,19.90
2018-08-18T02:27:11.494Z,19.90
2018-08-18T02:32:26.302Z,19.90
2018-08-18T02:37:30.529Z,19.80
2018-08-18T02:42:33.999Z,19.80
2018-08-18T02:47:37.469Z,19.80
2018-08-18T02:52:40.913Z,19.70
2018-08-18T02:57:44.748Z,19.60
2018-08-18T03:02:48.336Z,19.60
2018-08-18T03:07:52.944Z,19.60
2018-08-18T03:12:57.504Z,19.60
2018-08-18T03:18:01.018Z,19.50
2018-08-18T03:23:04.549Z,19.50
2018-08-18T03:28:08.049Z,19.40
2018-08-18T03:33:11.525Z,19.40
2018-08-18T03:38:17.839Z,19.40
2018-08-18T03:43:21.308Z,19.30
2018-08-18T03:48:24.724Z,19.30
2018-08-18T03:53:28.164Z,19.30
2018-08-18T03:58:41.648Z,19.30
2018-08-18T04:03:45.428Z,19.20
2018-08-18T04:08:48.872Z,19.20
2018-08-18T04:13:52.348Z,19.20
2018-08-18T04:18:59.655Z,19.10
2018-08-18T04:24:03.111Z,19.00
2018-08-18T04:29:06.621Z,19.00
2018-08-18T04:34:10.024Z,19.00
2018-08-18T04:39:14.057Z,19.00
2018-08-18T04:44:17.497Z,19.00
2018-08-18T04:49:20.914Z,19.10
2018-08-18T04:54:24.338Z,19.10
2018-08-18T04:59:27.935Z,19.20
2018-08-18T05:04:31.335Z,19.30
2018-08-18T05:09:34.794Z,19.50
2018-08-18T05:14:38.221Z,19.50
2018-08-18T05:19:41.713Z,19.40
2018-08-18T05:24:45.182Z,19.30
2018-08-18T05:29:48.959Z,19.40
2018-08-18T05:34:52.393Z,19.40
2018-08-18T05:39:55.902Z,19.40
2018-08-18T05:45:00.743Z,19.60
2018-08-18T05:50:04.290Z,19.70
2018-08-18T05:55:07.764Z,19.90
2018-08-18T06:00:16.617Z,20.00
2018-08-18T06:05:20.540Z,20.10
2018-08-18T06:10:24.014Z,20.30
2018-08-18T06:15:27.502Z,20.30
2018-08-18T06:20:30.949Z,20.50
2018-08-18T06:25:34.518Z,20.50
2018-08-18T06:30:37.989Z,20.60
2018-08-18T06:35:41.481Z,20.80
2018-08-18T06:40:49.172Z,20.90
2018-08-18T06:45:52.608Z,21.30
2018-08-18T06:50:56.090Z,21.40
2018-08-18T06:56:00.694Z,21.60
2018-08-18T07:01:04.358Z,22.70
2018-08-18T07:06:09.944Z,22.90
2018-08-18T07:11:13.439Z,22.70
2018-08-18T07:16:16.920Z,22.40
2018-08-18T07:21:20.425Z,22.20
2018-08-18T07:26:24.041Z,21.80
2018-08-18T07:31:27.514Z,21.60
2018-08-18T07:36:30.995Z,21.60
2018-08-18T07:41:34.660Z,21.40
2018-08-18T07:51:54.689Z,21.90
2018-08-18T07:56:58.496Z,22.10
2018-08-18T08:02:01.999Z,22.20
2018-08-18T08:07:05.562Z,22.20
2018-08-18T08:12:09.112Z,22.10
2018-08-18T08:17:12.962Z,22.10
2018-08-18T08:22:16.472Z,22.30
2018-08-18T08:27:19.999Z,22.50
2018-08-18T08:32:23.526Z,22.40
2018-08-18T08:37:27.016Z,22.70
2018-08-18T08:42:30.545Z,22.80
2018-08-18T08:47:34.096Z,22.80
2018-08-18T08:52:42.834Z,23.00
2018-08-18T08:57:46.403Z,23.40
2018-08-18T09:02:49.994Z,23.30
2018-08-18T09:07:53.517Z,23.20
2018-08-18T09:12:57.064Z,23.60
2018-08-18T09:18:00.625Z,23.40
2018-08-18T09:23:04.158Z,23.70
2018-08-18T09:28:07.673Z,23.80
2018-08-18T09:33:11.165Z,24.10
2018-08-18T09:38:14.705Z,24.00
2018-08-18T09:43:25.388Z,24.00
2018-08-18T09:48:28.965Z,24.20
2018-08-18T09:53:32.435Z,24.20
2018-08-18T09:58:36.006Z,24.20
2018-08-18T10:03:39.435Z,24.10
2018-08-18T10:08:42.986Z,24.50
2018-08-18T10:13:46.496Z,24.90
2018-08-18T10:18:50.731Z,25.00
2018-08-18T10:23:54.422Z,25.10
2018-08-18T10:29:12.377Z,25.30
2018-08-18T10:34:16.702Z,25.40
2018-08-18T10:39:20.229Z,25.70
2018-08-18T10:44:24.529Z,25.50
2018-08-18T10:49:39.325Z,25.70
2018-08-18T10:54:43.241Z,25.70
2018-08-18T10:59:52.629Z,25.80
2018-08-18T11:04:56.181Z,26.00
2018-08-18T11:09:59.800Z,26.10
2018-08-18T11:15:03.854Z,26.60
2018-08-18T11:20:12.835Z,26.70
2018-08-18T11:25:16.426Z,26.50
2018-08-18T11:30:21.232Z,26.60
2018-08-18T11:35:24.889Z,26.30
2018-08-18T11:40:28.441Z,26.20
2018-08-18T11:45:33.409Z,26.30
2018-08-18T11:50:37.031Z,26.20
2018-08-18T11:55:40.626Z,26.40
2018-08-18T12:00:46.497Z,26.30
2018-08-18T12:05:57.792Z,26.30
2018-08-18T12:11:03.118Z,26.60
2018-08-18T12:16:18.129Z,26.80
2018-08-18T12:21:21.699Z,26.80
2018-08-18T12:26:25.226Z,27.00
2018-08-18T12:31:29.218Z,27.30
2018-08-18T12:36:32.867Z,27.30
2018-08-18T12:41:36.329Z,27.50
2018-08-18T12:46:45.311Z,27.70
2018-08-18T12:51:48.833Z,27.80
2018-08-18T12:56:52.332Z,28.00
2018-08-18T13:01:55.838Z,28.00
2018-08-18T13:06:59.339Z,28.00
2018-08-18T13:12:02.846Z,28.00
2018-08-18T13:17:06.723Z,28.00
2018-08-18T13:22:10.225Z,28.40
2018-08-18T13:27:13.787Z,28.40
2018-08-18T13:32:17.381Z,28.40
2018-08-18T13:37:20.876Z,28.40
2018-08-18T13:42:25.436Z,28.30
2018-08-18T13:47:29.106Z,28.30
2018-08-18T13:52:37.784Z,28.10
2018-08-18T13:57:41.508Z,28.10
2018-08-18T14:02:45.719Z,28.10
2018-08-18T14:07:54.816Z,27.90
2018-08-18T14:13:02.966Z,28.10
2018-08-18T14:18:11.011Z,28.10
2018-08-18T14:23:14.494Z,28.20
2018-08-18T14:28:17.965Z,28.20
2018-08-18T14:33:21.413Z,28.20
2018-08-18T14:38:24.916Z,28.40
2018-08-18T14:43:33.884Z,28.40
2018-08-18T14:48:37.409Z,28.70
2018-08-18T14:53:41.901Z,28.70
2018-08-18T14:58:45.417Z,28.60
2018-08-18T15:03:49.022Z,28.60
2018-08-18T15:08:52.540Z,28.60
2018-08-18T15:13:56.014Z,28.50
2018-08-18T15:18:59.523Z,28.50
2018-08-18T15:24:03.111Z,28.50
2018-08-18T15:29:10.808Z,28.40
2018-08-18T15:34:14.389Z,28.40
2018-08-18T15:39:17.879Z,28.40
2018-08-18T15:44:21.387Z,28.50
2018-08-18T15:49:24.959Z,28.50
2018-08-18T15:54:28.506Z,28.40
2018-08-18T15:59:31.973Z,28.50
2018-08-18T16:04:35.569Z,28.60
2018-08-18T16:09:39.057Z,28.40
2018-08-18T16:14:42.862Z,28.40
2018-08-18T16:19:46.374Z,28.20
2018-08-18T16:24:49.859Z,28.20
2018-08-18T16:29:53.323Z,28.20
2018-08-18T16:35:13.357Z,28.10
2018-08-18T16:40:16.858Z,28.00
2018-08-18T16:45:20.321Z,27.80
2018-08-18T16:50:23.815Z,27.70
2018-08-18T16:55:28.928Z,27.50
2018-08-18T17:00:32.632Z,27.40
2018-08-18T17:05:36.158Z,27.30
2018-08-18T17:10:39.593Z,27.20
2018-08-18T17:15:43.112Z,27.00
2018-08-18T17:20:54.990Z,26.80
2018-08-18T17:25:58.500Z,26.70
2018-08-18T17:31:02.981Z,26.60
2018-08-18T17:36:06.509Z,26.40
2018-08-18T17:41:10.043Z,26.30
2018-08-18T17:46:13.589Z,26.10
2018-08-18T17:51:17.101Z,26.00
2018-08-18T17:56:20.613Z,25.90
2018-08-18T18:01:24.161Z,25.80
2018-08-18T18:06:27.795Z,25.60
2018-08-18T18:11:31.200Z,25.50
2018-08-18T18:16:34.704Z,25.40
2018-08-18T18:21:38.338Z,25.20
2018-08-18T18:26:45.593Z,25.10
2018-08-18T18:31:49.110Z,24.90
2018-08-18T18:36:52.648Z,24.80
2018-08-18T18:41:56.120Z,24.60
2018-08-18T18:46:59.628Z,24.50
2018-08-18T18:52:03.266Z,24.30
2018-08-18T18:57:06.859Z,24.20
2018-08-18T19:02:10.485Z,24.10
2018-08-18T19:07:14.028Z,23.90
2018-08-18T19:12:17.743Z,23.80
2018-08-18T19:17:21.284Z,23.60
2018-08-18T19:22:24.813Z,23.50
2018-08-18T19:27:28.342Z,23.40
2018-08-18T19:32:31.928Z,23.10
2018-08-18T19:37:39.620Z,23.10
2018-08-18T19:42:43.180Z,22.90
2018-08-18T19:47:46.756Z,22.80
2018-08-18T19:52:56.366Z,22.70
2018-08-18T19:57:59.935Z,22.50
2018-08-18T20:03:06.060Z,22.40
2018-08-18T20:08:09.782Z,22.30
2018-08-18T20:13:14.348Z,22.20
2018-08-18T20:18:18.092Z,22.10
2018-08-18T20:23:21.957Z,22.00
2018-08-18T20:28:25.458Z,21.90
2018-08-18T20:33:28.946Z,21.80
2018-08-18T20:38:47.052Z,21.80
2018-08-18T20:43:50.677Z,21.70
2018-08-18T20:48:54.244Z,21.70
2018-08-18T20:53:57.749Z,21.60
2018-08-18T20:59:02.182Z,21.60
2018-08-18T21:04:05.806Z,21.40
2018-08-18T21:09:24.365Z,21.40
2018-08-18T21:14:29.064Z,21.30
2018-08-18T21:19:33.192Z,21.20
2018-08-18T21:24:36.692Z,21.00
2018-08-18T21:29:40.157Z,21.00
2018-08-18T21:34:47.973Z,20.80
2018-08-18T21:39:52.072Z,20.80
2018-08-18T21:44:55.596Z,20.70
2018-08-18T21:49:59.104Z,20.60
2018-08-18T21:55:02.641Z,20.60
2018-08-18T22:00:06.555Z,20.40
2018-08-18T22:05:11.868Z,20.40
2018-08-18T22:10:15.382Z,20.30
2018-08-18T22:15:19.867Z,20.20
2018-08-18T22:20:24.137Z,20.20
2018-08-18T22:25:27.681Z,20.00
2018-08-18T22:30:31.207Z,20.00
2018-08-18T22:35:35.310Z,19.90
2018-08-18T22:40:38.822Z,19.80
2018-08-18T22:45:42.319Z,19.80
2018-08-18T22:50:45.785Z,19.60
2018-08-18T22:55:49.290Z,19.50
2018-08-18T23:00:56.434Z,19.60
2018-08-18T23:06:00.004Z,19.50
2018-08-18T23:11:03.535Z,19.40
2018-08-18T23:16:07.107Z,19.40
2018-08-18T23:21:14.861Z,19.30
2018-08-18T23:26:18.366Z,19.20
2018-08-18T23:31:21.842Z,19.20
2018-08-18T23:36:25.404Z,19.10
2018-08-18T23:41:28.884Z,19.00
2018-08-18T23:46:32.330Z,18.90
2018-08-18T23:51:41.054Z,18.80
2018-08-18T23:56:44.532Z,18.70
